createdAt,value
2023-04-20T00:00:01.090Z,8.30
2023-04-20T00:00:34.960Z,8.10
2023-04-20T00:01:08.329Z,7.90
2023-04-20T00:01:41.566Z,7.65
2023-04-20T00:02:15.797Z,7.93
2023-04-20T00:02:49.620Z,7.00
2023-04-20T00:03:23.206Z,8.10
2023-04-20T00:03:56.568Z,7.63
2023-04-20T00:04:30.570Z,7.68
2023-04-20T00:05:03.861Z,7.30
2023-04-20T00:05:38.059Z,8.35
2023-04-20T00:06:11.439Z,7.50
2023-04-20T00:06:45.128Z,7.55
2023-04-20T00:07:18.673Z,8.05
2023-04-20T00:07:52.198Z,6.43
2023-04-20T00:08:25.276Z,7.20
2023-04-20T00:08:58.350Z,7.97
2023-04-20T00:09:32.447Z,7.75
2023-04-20T00:10:06.143Z,7.63
2023-04-20T00:10:39.322Z,7.43
2023-04-20T00:11:12.492Z,7.63
2023-04-20T00:11:45.776Z,7.95
2023-04-20T00:12:18.950Z,8.07
2023-04-20T00:12:51.931Z,7.93
2023-04-20T00:13:25.008Z,7.83
2023-04-20T00:13:58.078Z,7.57
2023-04-20T00:14:31.559Z,7.85
2023-04-20T00:15:05.148Z,8.50
2023-04-20T00:15:38.842Z,8.20
2023-04-20T00:16:11.915Z,8.15
2023-04-20T00:16:45.230Z,8.00
2023-04-20T00:17:18.816Z,8.15
2023-04-20T00:17:52.831Z,8.50
2023-04-20T00:18:26.057Z,7.68
2023-04-20T00:19:02.410Z,8.10
2023-04-20T00:19:35.694Z,7.63
2023-04-20T00:20:10.520Z,7.75
2023-04-20T00:20:43.888Z,8.48
2023-04-20T00:21:17.372Z,8.27
2023-04-20T00:21:50.962Z,7.78
2023-04-20T00:22:24.448Z,7.97
2023-04-20T00:22:57.317Z,8.00
2023-04-20T00:23:30.400Z,8.23
2023-04-20T00:24:03.583Z,7.75
2023-04-20T00:24:36.853Z,7.87
2023-04-20T00:25:10.448Z,8.30
2023-04-20T00:25:43.931Z,8.10
2023-04-20T00:26:17.713Z,8.63
2023-04-20T00:26:55.806Z,7.43
2023-04-20T00:27:29.500Z,8.20
2023-04-20T00:28:02.679Z,8.25
2023-04-20T00:28:35.957Z,8.40
2023-04-20T00:29:09.238Z,7.65
2023-04-20T00:29:43.335Z,8.48
2023-04-20T00:30:16.921Z,7.40
2023-04-20T00:30:50.154Z,7.60
2023-04-20T00:31:23.697Z,7.78
2023-04-20T00:31:56.765Z,7.97
2023-04-20T00:32:30.882Z,7.65
2023-04-20T00:33:03.976Z,8.35
2023-04-20T00:33:37.215Z,7.47
2023-04-20T00:34:11.013Z,8.13
2023-04-20T00:34:44.088Z,7.57
2023-04-20T00:35:17.573Z,8.23
2023-04-20T00:35:51.050Z,7.33
2023-04-20T00:36:24.353Z,8.55
2023-04-20T00:36:58.332Z,8.13
2023-04-20T00:37:32.224Z,7.65
2023-04-20T00:38:05.399Z,7.85
2023-04-20T00:38:38.494Z,8.30
2023-04-20T00:39:11.858Z,8.13
2023-04-20T00:39:45.040Z,8.68
2023-04-20T00:40:18.321Z,8.52
2023-04-20T00:40:54.571Z,8.13
2023-04-20T00:41:27.644Z,8.10
2023-04-20T00:42:09.934Z,8.10
2023-04-20T00:42:43.013Z,8.60
2023-04-20T00:43:16.097Z,8.32
2023-04-20T00:43:53.258Z,8.32
2023-04-20T00:44:26.432Z,8.20
2023-04-20T00:45:00.451Z,7.93
2023-04-20T00:45:33.708Z,8.20
2023-04-20T00:46:07.043Z,7.90
2023-04-20T00:46:41.461Z,8.50
2023-04-20T00:47:14.779Z,8.20
2023-04-20T00:47:48.190Z,8.38
2023-04-20T00:48:21.755Z,7.75
2023-04-20T00:48:55.255Z,8.63
2023-04-20T00:49:30.462Z,7.55
2023-04-20T00:50:04.152Z,8.38
2023-04-20T00:50:38.349Z,8.50
2023-04-20T00:51:13.782Z,8.30
2023-04-20T00:51:46.961Z,7.90
2023-04-20T00:52:20.446Z,8.05
2023-04-20T00:52:53.862Z,7.37
2023-04-20T00:53:26.903Z,8.15
2023-04-20T00:54:02.334Z,7.72
2023-04-20T00:54:36.942Z,8.70
2023-04-20T00:55:10.322Z,8.27
2023-04-20T00:55:45.144Z,8.38
2023-04-20T00:56:19.866Z,7.72
2023-04-20T00:56:53.349Z,8.07
2023-04-20T00:57:27.445Z,8.43
2023-04-20T00:58:00.719Z,8.10
2023-04-20T00:58:34.514Z,8.20
2023-04-20T00:59:08.917Z,7.90
2023-04-20T00:59:42.096Z,8.00
2023-04-20T01:00:15.585Z,8.40
2023-04-20T01:00:48.762Z,7.88
2023-04-20T01:01:24.125Z,8.93
2023-04-20T01:01:58.133Z,8.63
2023-04-20T01:02:31.657Z,8.40
2023-04-20T01:03:05.686Z,8.68
2023-04-20T01:03:42.486Z,8.15
2023-04-20T01:04:16.968Z,8.10
2023-04-20T01:04:50.653Z,8.57
2023-04-20T01:05:24.340Z,8.48
2023-04-20T01:05:57.914Z,7.97
2023-04-20T01:06:31.392Z,8.77
2023-04-20T01:07:04.777Z,7.90
2023-04-20T01:07:38.058Z,7.93
2023-04-20T01:08:11.542Z,8.10
2023-04-20T01:08:48.273Z,8.82
2023-04-20T01:09:21.587Z,8.48
2023-04-20T01:09:54.659Z,8.57
2023-04-20T01:10:27.944Z,8.20
2023-04-20T01:11:01.216Z,8.75
2023-04-20T01:11:34.501Z,8.50
2023-04-20T01:12:08.293Z,8.90
2023-04-20T01:12:43.117Z,8.68
2023-04-20T01:13:17.000Z,8.65
2023-04-20T01:13:50.392Z,8.77
2023-04-20T01:14:24.276Z,8.88
2023-04-20T01:14:57.461Z,8.50
2023-04-20T01:15:31.150Z,8.93
2023-04-20T01:16:04.299Z,8.13
2023-04-20T01:16:37.840Z,8.82
2023-04-20T01:17:10.985Z,8.25
2023-04-20T01:17:44.414Z,8.35
2023-04-20T01:18:19.609Z,8.85
2023-04-20T01:18:53.181Z,8.57
2023-04-20T01:19:27.281Z,9.30
2023-04-20T01:20:00.987Z,8.88
2023-04-20T01:20:35.082Z,8.50
2023-04-20T01:21:08.149Z,8.57
2023-04-20T01:21:41.539Z,8.88
2023-04-20T01:22:18.196Z,9.27
2023-04-20T01:22:52.398Z,8.52
2023-04-20T01:23:25.474Z,8.30
2023-04-20T01:23:58.747Z,9.05
2023-04-20T01:24:32.024Z,9.15
2023-04-20T01:25:05.308Z,8.57
2023-04-20T01:25:38.500Z,8.75
2023-04-20T01:26:13.341Z,8.98
2023-04-20T01:26:46.678Z,8.50
2023-04-20T01:27:20.068Z,7.43
2023-04-20T01:27:53.043Z,8.95
2023-04-20T01:28:27.449Z,8.82
2023-04-20T01:29:00.830Z,9.15
2023-04-20T01:29:34.519Z,8.48
2023-04-20T01:30:08.720Z,8.77
2023-04-20T01:30:43.540Z,8.15
2023-04-20T01:31:16.882Z,8.55
2023-04-20T01:31:50.389Z,8.15
2023-04-20T01:32:25.028Z,8.73
2023-04-20T01:32:58.136Z,8.88
2023-04-20T01:33:31.686Z,9.15
2023-04-20T01:34:04.954Z,8.93
2023-04-20T01:34:38.339Z,8.38
2023-04-20T01:35:11.619Z,9.65
2023-04-20T01:35:44.698Z,9.68
2023-04-20T01:36:18.078Z,9.18
2023-04-20T01:36:51.279Z,9.77
2023-04-20T01:37:24.334Z,9.05
2023-04-20T01:37:57.713Z,8.73
2023-04-20T01:38:33.356Z,8.50
2023-04-20T01:39:09.121Z,8.65
2023-04-20T01:39:42.724Z,9.20
2023-04-20T01:40:16.468Z,9.05
2023-04-20T01:40:50.158Z,8.68
2023-04-20T01:41:23.747Z,9.35
2023-04-20T01:41:57.132Z,9.30
2023-04-20T01:42:31.018Z,9.13
2023-04-20T01:43:04.203Z,9.25
2023-04-20T01:43:38.197Z,9.00
2023-04-20T01:44:11.374Z,9.43
2023-04-20T01:44:44.550Z,8.77
2023-04-20T01:45:17.733Z,9.20
2023-04-20T01:45:51.010Z,9.55
2023-04-20T01:46:25.006Z,8.70
2023-04-20T01:46:58.465Z,8.40
2023-04-20T01:47:31.551Z,8.55
2023-04-20T01:48:04.788Z,8.98
2023-04-20T01:48:39.055Z,8.50
2023-04-20T01:49:12.435Z,9.30
2023-04-20T01:49:45.711Z,8.85
2023-04-20T01:50:18.891Z,9.02
2023-04-20T01:50:52.685Z,8.70
2023-04-20T01:51:25.758Z,9.80
2023-04-20T01:52:00.401Z,8.98
2023-04-20T01:52:33.661Z,9.38
2023-04-20T01:53:07.041Z,9.05
2023-04-20T01:53:40.013Z,8.93
2023-04-20T01:54:14.009Z,9.05
2023-04-20T01:54:47.286Z,9.43
2023-04-20T01:55:20.565Z,8.82
2023-04-20T01:55:54.973Z,8.52
2023-04-20T01:56:29.484Z,8.93
2023-04-20T01:57:04.498Z,9.10
2023-04-20T01:57:37.779Z,8.73
2023-04-20T01:58:11.162Z,9.35
2023-04-20T01:58:44.852Z,8.98
2023-04-20T01:59:18.364Z,8.63
2023-04-20T01:59:51.819Z,8.65
2023-04-20T02:00:24.900Z,9.07
2023-04-20T02:00:58.288Z,8.95
2023-04-20T02:01:33.002Z,9.52
2023-04-20T02:02:07.161Z,9.00
2023-04-20T02:02:40.363Z,9.88
2023-04-20T02:03:13.764Z,9.48
2023-04-20T02:03:48.034Z,9.00
2023-04-20T02:04:21.661Z,9.30
2023-04-20T02:04:54.722Z,9.07
2023-04-20T02:05:28.105Z,9.40
2023-04-20T02:06:03.232Z,9.10
2023-04-20T02:06:36.614Z,9.60
2023-04-20T02:07:09.697Z,10.02
2023-04-20T02:07:45.429Z,9.82
2023-04-20T02:08:18.502Z,9.13
2023-04-20T02:08:51.680Z,9.25
2023-04-20T02:09:24.764Z,9.13
2023-04-20T02:09:57.930Z,9.57
2023-04-20T02:10:31.012Z,9.68
2023-04-20T02:11:04.490Z,8.60
2023-04-20T02:11:37.825Z,10.00
2023-04-20T02:12:13.611Z,9.60
2023-04-20T02:12:46.993Z,9.50
2023-04-20T02:13:20.689Z,9.73
2023-04-20T02:13:53.977Z,8.70
2023-04-20T02:14:27.446Z,9.90
2023-04-20T02:15:00.429Z,10.82
2023-04-20T02:15:33.765Z,10.65
2023-04-20T02:16:07.081Z,9.18
2023-04-20T02:16:40.398Z,9.40
2023-04-20T02:17:14.457Z,9.87
2023-04-20T02:17:52.963Z,9.60
2023-04-20T02:18:26.659Z,10.65
2023-04-20T02:19:00.448Z,9.23
2023-04-20T02:19:34.032Z,8.38
2023-04-20T02:20:07.736Z,9.40
2023-04-20T02:20:40.704Z,9.60
2023-04-20T02:21:14.125Z,9.57
2023-04-20T02:21:47.363Z,9.18
2023-04-20T02:22:20.642Z,9.63
2023-04-20T02:22:53.947Z,9.90
2023-04-20T02:23:27.302Z,10.02
2023-04-20T02:24:01.841Z,10.05
2023-04-20T02:24:35.295Z,10.23
2023-04-20T02:25:10.423Z,10.30
2023-04-20T02:25:43.596Z,11.20
2023-04-20T02:26:18.109Z,10.20
2023-04-20T02:26:51.188Z,9.73
2023-04-20T02:27:24.363Z,10.48
2023-04-20T02:27:57.554Z,11.05
2023-04-20T02:28:30.613Z,11.20
2023-04-20T02:29:03.686Z,10.38
2023-04-20T02:29:37.074Z,10.15
2023-04-20T02:30:11.277Z,10.05
2023-04-20T02:30:44.764Z,10.07
2023-04-20T02:31:17.963Z,9.52
2023-04-20T02:31:51.216Z,9.98
2023-04-20T02:32:24.322Z,9.75
2023-04-20T02:32:57.732Z,11.63
2023-04-20T02:33:31.066Z,10.25
2023-04-20T02:34:06.590Z,10.10
2023-04-20T02:34:39.768Z,9.45
2023-04-20T02:35:13.047Z,10.32
2023-04-20T02:35:46.026Z,11.55
2023-04-20T02:36:19.297Z,10.90
2023-04-20T02:36:52.375Z,10.80
2023-04-20T02:37:25.676Z,11.23
2023-04-20T02:37:58.628Z,11.13
2023-04-20T02:38:32.417Z,10.20
2023-04-20T02:39:07.345Z,10.18
2023-04-20T02:39:40.619Z,10.37
2023-04-20T02:40:14.415Z,11.02
2023-04-20T02:40:47.767Z,12.07
2023-04-20T02:41:21.997Z,11.10
2023-04-20T02:41:55.686Z,11.55
2023-04-20T02:42:29.687Z,10.30
2023-04-20T02:43:04.511Z,10.23
2023-04-20T02:43:39.209Z,10.30
2023-04-20T02:44:12.754Z,10.48
2023-04-20T02:44:46.185Z,10.20
2023-04-20T02:45:20.284Z,10.33
2023-04-20T02:45:53.559Z,10.15
2023-04-20T02:46:28.812Z,10.77
2023-04-20T02:47:02.378Z,9.90
2023-04-20T02:47:36.312Z,10.77
2023-04-20T02:48:09.553Z,10.65
2023-04-20T02:48:43.143Z,10.75
2023-04-20T02:49:17.066Z,11.85
2023-04-20T02:49:51.344Z,10.75
2023-04-20T02:50:24.619Z,10.68
2023-04-20T02:51:13.062Z,10.33
2023-04-20T02:51:49.934Z,10.95
2023-04-20T02:52:23.102Z,10.25
2023-04-20T02:52:56.377Z,9.82
2023-04-20T02:53:29.557Z,10.48
2023-04-20T02:54:18.101Z,9.98
2023-04-20T02:54:51.472Z,10.32
2023-04-20T02:55:24.655Z,10.32
2023-04-20T02:56:00.907Z,10.00
2023-04-20T02:56:52.824Z,10.30
2023-04-20T02:57:26.622Z,10.50
2023-04-20T02:58:01.330Z,10.15
2023-04-20T02:58:52.836Z,9.85
2023-04-20T02:59:30.616Z,10.60
2023-04-20T03:00:09.871Z,10.00
2023-04-20T03:01:04.835Z,9.35
2023-04-20T03:01:38.889Z,10.75
2023-04-20T03:02:21.901Z,10.25
2023-04-20T03:02:55.624Z,10.00
2023-04-20T03:03:30.782Z,10.80
2023-04-20T03:04:05.296Z,10.27
2023-04-20T03:04:42.143Z,9.95
2023-04-20T03:05:23.611Z,10.32
2023-04-20T03:05:57.082Z,9.68
2023-04-20T03:06:30.869Z,10.80
2023-04-20T03:07:05.382Z,10.73
2023-04-20T03:07:41.434Z,9.98
2023-04-20T03:08:16.969Z,10.13
2023-04-20T03:08:51.979Z,9.75
2023-04-20T03:09:48.203Z,9.63
2023-04-20T03:10:39.812Z,9.57
2023-04-20T03:11:25.889Z,9.73
2023-04-20T03:11:58.963Z,9.68
2023-04-20T03:12:53.748Z,9.50
2023-04-20T03:13:37.890Z,10.45
2023-04-20T03:14:11.269Z,10.32
2023-04-20T03:14:44.751Z,9.60
2023-04-20T03:15:18.948Z,9.80
2023-04-20T03:16:21.797Z,10.10
2023-04-20T03:16:58.073Z,9.70
2023-04-20T03:17:31.603Z,9.73
2023-04-20T03:18:05.531Z,9.25
2023-04-20T03:18:38.853Z,9.95
2023-04-20T03:19:12.635Z,10.40
2023-04-20T03:19:46.565Z,8.98
2023-04-20T03:20:19.811Z,9.60
2023-04-20T03:20:53.288Z,9.32
2023-04-20T03:21:26.380Z,9.88
2023-04-20T03:21:59.746Z,10.15
2023-04-20T03:22:33.026Z,9.63
2023-04-20T03:23:08.151Z,9.83
2023-04-20T03:23:42.251Z,10.23
2023-04-20T03:24:15.429Z,9.85
2023-04-20T03:24:49.305Z,9.35
2023-04-20T03:25:37.651Z,9.55
2023-04-20T03:26:20.973Z,9.88
2023-04-20T03:27:14.835Z,9.50
2023-04-20T03:27:59.785Z,9.88
2023-04-20T03:28:33.578Z,10.13
2023-04-20T03:29:06.971Z,9.82
2023-04-20T03:29:40.758Z,10.10
2023-04-20T03:30:14.338Z,9.80
2023-04-20T03:30:48.130Z,10.13
2023-04-20T03:31:22.665Z,9.60
2023-04-20T03:31:57.883Z,9.38
2023-04-20T03:32:32.756Z,10.13
2023-04-20T03:33:06.522Z,10.10
2023-04-20T03:33:40.265Z,10.23
2023-04-20T03:34:13.751Z,10.10
2023-04-20T03:34:48.053Z,9.85
2023-04-20T03:35:21.436Z,10.43
2023-04-20T03:35:54.418Z,9.98
2023-04-20T03:36:29.019Z,10.35
2023-04-20T03:37:03.422Z,9.80
2023-04-20T03:37:37.939Z,10.50
2023-04-20T03:38:12.544Z,9.32
2023-04-20T03:38:45.824Z,10.23
2023-04-20T03:39:19.269Z,9.77
2023-04-20T03:39:52.487Z,11.10
2023-04-20T03:40:25.981Z,10.30
2023-04-20T03:40:59.769Z,9.53
2023-04-20T03:41:33.873Z,9.40
2023-04-20T03:42:07.155Z,10.45
2023-04-20T03:42:40.327Z,10.32
2023-04-20T03:43:13.600Z,9.25
2023-04-20T03:43:46.676Z,9.75
2023-04-20T03:44:19.859Z,10.55
2023-04-20T03:44:53.341Z,10.10
2023-04-20T03:45:27.058Z,10.18
2023-04-20T03:46:00.149Z,10.35
2023-04-20T03:46:34.210Z,10.07
2023-04-20T03:47:07.180Z,10.02
2023-04-20T03:47:40.291Z,10.20
2023-04-20T03:48:13.741Z,9.48
2023-04-20T03:48:47.018Z,10.10
2023-04-20T03:49:23.900Z,10.18
2023-04-20T03:49:57.470Z,9.55
2023-04-20T03:50:30.652Z,9.90
2023-04-20T03:51:04.131Z,9.85
2023-04-20T03:51:37.722Z,10.13
2023-04-20T03:52:12.129Z,9.13
2023-04-20T03:52:45.442Z,10.10
2023-04-20T03:53:18.792Z,10.02
2023-04-20T03:53:52.182Z,9.90
2023-04-20T03:54:25.352Z,10.23
2023-04-20T03:54:58.733Z,9.48
2023-04-20T03:55:32.013Z,9.70
2023-04-20T03:56:10.414Z,9.50
2023-04-20T03:56:46.592Z,10.68
2023-04-20T03:57:20.154Z,9.50
2023-04-20T03:57:54.558Z,9.67
2023-04-20T03:58:28.558Z,9.45
2023-04-20T03:59:11.769Z,10.77
2023-04-20T03:59:50.679Z,10.50
2023-04-20T04:00:27.551Z,10.52
2023-04-20T04:01:10.757Z,9.55
2023-04-20T04:01:47.731Z,10.77
2023-04-20T04:02:22.918Z,10.35
2023-04-20T04:02:57.130Z,10.43
2023-04-20T04:03:34.018Z,9.65
2023-04-20T04:04:08.974Z,10.27
2023-04-20T04:04:43.218Z,10.20
2023-04-20T04:05:17.033Z,9.85
2023-04-20T04:05:50.623Z,10.23
2023-04-20T04:06:23.901Z,9.70
2023-04-20T04:06:58.008Z,9.10
2023-04-20T04:07:31.563Z,10.05
2023-04-20T04:08:05.170Z,9.35
2023-04-20T04:08:38.658Z,9.70
2023-04-20T04:09:11.971Z,9.70
2023-04-20T04:09:45.217Z,10.07
2023-04-20T04:10:22.293Z,9.30
2023-04-20T04:10:55.878Z,10.32
2023-04-20T04:11:30.513Z,10.52
2023-04-20T04:12:05.518Z,10.40
2023-04-20T04:12:38.790Z,10.23
2023-04-20T04:13:12.064Z,9.85
2023-04-20T04:13:45.549Z,9.07
2023-04-20T04:14:18.937Z,9.63
2023-04-20T04:14:52.520Z,10.48
2023-04-20T04:15:28.462Z,9.73
2023-04-20T04:16:09.133Z,10.13
2023-04-20T04:16:42.830Z,9.98
2023-04-20T04:17:17.151Z,9.88
2023-04-20T04:17:51.543Z,10.32
2023-04-20T04:18:25.172Z,9.57
2023-04-20T04:18:58.720Z,10.13
2023-04-20T04:19:32.449Z,9.73
2023-04-20T04:20:09.561Z,10.00
2023-04-20T04:20:43.036Z,9.80
2023-04-20T04:21:17.859Z,10.23
2023-04-20T04:21:57.482Z,9.80
2023-04-20T04:22:30.676Z,9.73
2023-04-20T04:23:22.788Z,9.75
2023-04-20T04:24:17.996Z,9.63
2023-04-20T04:25:04.470Z,9.40
2023-04-20T04:25:40.719Z,10.00
2023-04-20T04:26:16.145Z,9.45
2023-04-20T04:26:50.353Z,9.90
2023-04-20T04:27:25.272Z,9.40
2023-04-20T04:28:02.645Z,10.50
2023-04-20T04:28:37.765Z,9.65
2023-04-20T04:29:22.795Z,8.90
2023-04-20T04:29:57.126Z,9.45
2023-04-20T04:30:30.611Z,9.98
2023-04-20T04:31:06.896Z,9.38
2023-04-20T04:31:41.399Z,9.88
2023-04-20T04:32:20.492Z,9.70
2023-04-20T04:32:54.006Z,9.57
2023-04-20T04:33:27.969Z,9.60
2023-04-20T04:34:02.178Z,10.10
2023-04-20T04:34:45.082Z,9.35
2023-04-20T04:35:19.082Z,10.13
2023-04-20T04:35:54.161Z,9.57
2023-04-20T04:36:28.199Z,9.65
2023-04-20T04:37:03.729Z,10.65
2023-04-20T04:37:46.737Z,9.95
2023-04-20T04:38:20.122Z,9.77
2023-04-20T04:38:55.555Z,10.43
2023-04-20T04:39:29.449Z,9.63
2023-04-20T04:40:14.499Z,9.90
2023-04-20T04:40:48.610Z,9.55
2023-04-20T04:41:24.034Z,10.43
2023-04-20T04:41:58.354Z,9.15
2023-04-20T04:42:45.998Z,9.50
2023-04-20T04:43:20.055Z,9.90
2023-04-20T04:44:06.647Z,9.43
2023-04-20T04:44:40.542Z,9.20
2023-04-20T04:45:15.762Z,10.07
2023-04-20T04:45:50.378Z,10.07
2023-04-20T04:46:25.946Z,10.13
2023-04-20T04:46:59.187Z,9.88
2023-04-20T04:47:36.287Z,10.32
2023-04-20T04:48:12.729Z,8.98
2023-04-20T04:48:47.118Z,9.68
2023-04-20T04:49:21.084Z,9.80
2023-04-20T04:49:55.112Z,8.32
2023-04-20T04:50:28.301Z,9.70
2023-04-20T04:51:01.473Z,9.63
2023-04-20T04:51:34.959Z,10.45
2023-04-20T04:52:09.056Z,9.73
2023-04-20T04:52:42.137Z,9.65
2023-04-20T04:53:15.309Z,9.30
2023-04-20T04:53:50.233Z,9.93
2023-04-20T04:54:23.201Z,10.07
2023-04-20T04:54:56.392Z,10.20
2023-04-20T04:55:29.556Z,10.38
2023-04-20T04:56:02.941Z,9.88
2023-04-20T04:56:35.918Z,10.50
2023-04-20T04:57:09.087Z,9.82
2023-04-20T04:57:42.187Z,9.73
2023-04-20T04:58:15.957Z,9.52
2023-04-20T04:58:49.027Z,10.00
2023-04-20T04:59:22.416Z,9.75
2023-04-20T04:59:55.590Z,10.27
2023-04-20T05:00:29.809Z,9.60
2023-04-20T05:01:02.871Z,10.50
2023-04-20T05:01:36.183Z,10.13
2023-04-20T05:02:09.432Z,10.13
2023-04-20T05:02:42.870Z,9.45
2023-04-20T05:03:16.822Z,10.17
2023-04-20T05:03:50.409Z,10.65
2023-04-20T05:04:23.736Z,10.30
2023-04-20T05:04:57.465Z,9.85
2023-04-20T05:05:30.854Z,9.27
2023-04-20T05:06:04.141Z,9.65
2023-04-20T05:06:37.434Z,9.93
2023-04-20T05:07:14.584Z,10.80
2023-04-20T05:07:48.072Z,9.65
2023-04-20T05:08:22.073Z,9.50
2023-04-20T05:08:55.238Z,10.27
2023-04-20T05:09:33.744Z,10.52
2023-04-20T05:10:07.974Z,9.32
2023-04-20T05:10:41.530Z,9.27
2023-04-20T05:11:14.506Z,10.13
2023-04-20T05:11:48.400Z,9.07
2023-04-20T05:12:21.476Z,10.70
2023-04-20T05:12:54.863Z,10.50
2023-04-20T05:13:28.340Z,9.13
2023-04-20T05:14:03.265Z,9.52
2023-04-20T05:14:36.851Z,10.63
2023-04-20T05:15:10.546Z,9.85
2023-04-20T05:15:44.007Z,10.27
2023-04-20T05:16:17.583Z,10.63
2023-04-20T05:16:50.892Z,10.35
2023-04-20T05:17:24.127Z,9.20
2023-04-20T05:17:57.391Z,10.35
2023-04-20T05:18:31.050Z,9.50
2023-04-20T05:19:04.526Z,8.75
2023-04-20T05:19:37.804Z,10.27
2023-04-20T05:20:12.212Z,10.20
2023-04-20T05:20:45.502Z,9.68
2023-04-20T05:21:18.978Z,10.25
2023-04-20T05:21:52.152Z,10.10
2023-04-20T05:22:25.330Z,9.43
2023-04-20T05:22:58.624Z,9.63
2023-04-20T05:23:31.995Z,9.27
2023-04-20T05:24:05.274Z,10.15
2023-04-20T05:24:38.651Z,10.52
2023-04-20T05:25:13.875Z,9.77
2023-04-20T05:25:47.368Z,9.37
2023-04-20T05:26:20.852Z,9.25
2023-04-20T05:26:54.334Z,10.02
2023-04-20T05:27:27.416Z,10.52
2023-04-20T05:28:00.694Z,9.93
2023-04-20T05:28:34.698Z,8.82
2023-04-20T05:29:07.867Z,10.43
2023-04-20T05:29:40.741Z,9.75
2023-04-20T05:30:21.566Z,10.52
2023-04-20T05:30:57.955Z,9.65
2023-04-20T05:31:33.758Z,9.83
2023-04-20T05:32:07.343Z,9.68
2023-04-20T05:32:40.816Z,9.45
2023-04-20T05:33:13.827Z,9.88
2023-04-20T05:33:47.061Z,9.85
2023-04-20T05:34:20.906Z,9.50
2023-04-20T05:34:54.390Z,10.45
2023-04-20T05:35:27.672Z,10.05
2023-04-20T05:36:00.954Z,10.23
2023-04-20T05:36:34.333Z,9.80
2023-04-20T05:37:07.508Z,9.90
2023-04-20T05:37:40.586Z,10.25
2023-04-20T05:38:13.771Z,9.88
2023-04-20T05:38:47.079Z,9.20
2023-04-20T05:39:20.681Z,9.05
2023-04-20T05:39:54.130Z,9.10
2023-04-20T05:40:27.503Z,10.07
2023-04-20T05:41:00.989Z,10.18
2023-04-20T05:41:34.290Z,10.18
2023-04-20T05:42:07.662Z,9.85
2023-04-20T05:42:41.436Z,9.83
2023-04-20T05:43:14.820Z,9.95
2023-04-20T05:43:48.205Z,10.20
2023-04-20T05:44:21.389Z,10.05
2023-04-20T05:44:54.764Z,9.85
2023-04-20T05:45:28.005Z,9.50
2023-04-20T05:46:01.346Z,10.30
2023-04-20T05:46:34.805Z,9.90
2023-04-20T05:47:09.318Z,10.48
2023-04-20T05:47:42.650Z,10.25
2023-04-20T05:48:15.879Z,10.47
2023-04-20T05:48:49.363Z,10.32
2023-04-20T05:49:22.446Z,9.88
2023-04-20T05:49:55.830Z,9.63
2023-04-20T05:50:28.796Z,9.38
2023-04-20T05:51:02.073Z,10.07
2023-04-20T05:51:35.465Z,10.73
2023-04-20T05:52:08.530Z,10.00
2023-04-20T05:52:41.914Z,10.70
2023-04-20T05:53:15.108Z,10.13
2023-04-20T05:53:48.490Z,10.33
2023-04-20T05:54:21.755Z,9.82
2023-04-20T05:54:54.733Z,10.40
2023-04-20T05:55:27.907Z,10.45
2023-04-20T05:56:01.190Z,10.57
2023-04-20T05:56:34.371Z,9.75
2023-04-20T05:57:07.650Z,9.88
2023-04-20T05:57:43.491Z,10.25
2023-04-20T05:58:17.328Z,10.30
2023-04-20T05:58:50.761Z,10.05
2023-04-20T05:59:24.144Z,9.70
2023-04-20T05:59:57.837Z,9.77
2023-04-20T06:00:31.174Z,9.93
2023-04-20T06:01:04.904Z,10.20
2023-04-20T06:01:38.095Z,9.45
2023-04-20T06:02:11.684Z,10.07
2023-04-20T06:02:44.926Z,9.82
2023-04-20T06:03:18.521Z,10.10
2023-04-20T06:03:52.124Z,10.40
2023-04-20T06:04:25.721Z,10.05
2023-04-20T06:04:59.622Z,10.47
2023-04-20T06:05:33.110Z,10.02
2023-04-20T06:06:07.301Z,9.65
2023-04-20T06:06:40.888Z,10.00
2023-04-20T06:07:14.063Z,9.65
2023-04-20T06:07:47.551Z,9.27
2023-04-20T06:08:20.731Z,10.30
2023-04-20T06:08:55.745Z,10.15
2023-04-20T06:09:29.133Z,10.25
2023-04-20T06:10:02.412Z,9.27
2023-04-20T06:10:36.118Z,10.20
2023-04-20T06:11:09.276Z,9.55
2023-04-20T06:11:42.458Z,9.77
2023-04-20T06:12:15.638Z,10.25
2023-04-20T06:12:49.017Z,9.75
2023-04-20T06:13:22.301Z,9.48
2023-04-20T06:13:55.379Z,9.80
2023-04-20T06:14:28.756Z,9.02
2023-04-20T06:15:01.832Z,10.02
2023-04-20T06:15:34.741Z,10.18
2023-04-20T06:16:11.422Z,9.90
2023-04-20T06:16:44.759Z,9.48
2023-04-20T06:17:18.021Z,9.55
2023-04-20T06:17:51.244Z,9.80
2023-04-20T06:18:24.683Z,9.73
2023-04-20T06:18:57.864Z,9.23
2023-04-20T06:19:31.037Z,9.40
2023-04-20T06:20:04.730Z,9.13
2023-04-20T06:20:39.857Z,9.38
2023-04-20T06:21:13.037Z,9.57
2023-04-20T06:21:46.621Z,9.37
2023-04-20T06:22:20.312Z,9.68
2023-04-20T06:22:53.488Z,9.45
2023-04-20T06:23:26.874Z,10.25
2023-04-20T06:24:00.255Z,9.13
2023-04-20T06:24:33.528Z,9.18
2023-04-20T06:25:06.912Z,9.23
2023-04-20T06:25:40.197Z,9.00
2023-04-20T06:26:13.274Z,9.82
2023-04-20T06:26:46.348Z,9.65
2023-04-20T06:27:19.529Z,9.27
2023-04-20T06:27:53.081Z,8.85
2023-04-20T06:28:26.502Z,8.57
2023-04-20T06:28:59.674Z,9.38
2023-04-20T06:29:32.750Z,9.63
2023-04-20T06:30:06.644Z,8.45
2023-04-20T06:30:39.614Z,9.00
2023-04-20T06:31:12.753Z,9.38
2023-04-20T06:31:46.197Z,8.65
2023-04-20T06:32:19.866Z,9.02
2023-04-20T06:32:53.192Z,9.27
2023-04-20T06:33:26.417Z,8.73
2023-04-20T06:33:59.396Z,8.18
2023-04-20T06:34:32.632Z,9.13
2023-04-20T06:35:06.609Z,9.32
2023-04-20T06:35:40.563Z,9.10
2023-04-20T06:36:13.745Z,9.60
2023-04-20T06:36:46.922Z,9.40
2023-04-20T06:37:20.101Z,9.60
2023-04-20T06:37:53.552Z,9.35
2023-04-20T06:38:27.278Z,8.77
2023-04-20T06:39:00.661Z,8.82
2023-04-20T06:39:33.836Z,10.02
2023-04-20T06:40:10.712Z,9.15
2023-04-20T06:40:44.103Z,8.43
2023-04-20T06:41:17.367Z,8.77
2023-04-20T06:41:50.451Z,9.52
2023-04-20T06:42:27.810Z,9.50
2023-04-20T06:43:03.449Z,9.27
2023-04-20T06:43:36.626Z,9.10
2023-04-20T06:44:09.803Z,9.67
2023-04-20T06:44:42.886Z,9.55
2023-04-20T06:45:15.962Z,10.45
2023-04-20T06:45:49.257Z,9.05
2023-04-20T06:46:22.350Z,9.80
2023-04-20T06:46:55.863Z,9.40
2023-04-20T06:47:32.308Z,9.07
2023-04-20T06:48:05.547Z,8.48
2023-04-20T06:48:38.919Z,9.75
2023-04-20T06:49:11.781Z,9.13
2023-04-20T06:49:45.169Z,9.57
2023-04-20T06:50:18.560Z,9.07
2023-04-20T06:50:52.134Z,8.80
2023-04-20T06:51:25.622Z,8.75
2023-04-20T06:51:58.920Z,9.35
2023-04-20T06:52:32.482Z,9.23
2023-04-20T06:53:06.380Z,9.38
2023-04-20T06:53:39.566Z,8.55
2023-04-20T06:54:12.842Z,8.82
2023-04-20T06:54:46.121Z,9.68
2023-04-20T06:55:19.196Z,9.40
2023-04-20T06:55:54.421Z,8.45
2023-04-20T06:56:28.728Z,9.52
2023-04-20T06:57:02.109Z,9.18
2023-04-20T06:57:35.904Z,9.40
2023-04-20T06:58:09.186Z,9.23
2023-04-20T06:58:42.460Z,8.40
2023-04-20T06:59:18.707Z,9.18
2023-04-20T06:59:52.194Z,9.60
2023-04-20T07:00:28.034Z,9.20
2023-04-20T07:01:01.321Z,9.27
2023-04-20T07:01:34.447Z,8.80
2023-04-20T07:02:07.937Z,9.63
2023-04-20T07:02:48.830Z,9.40
2023-04-20T07:03:22.326Z,8.95
2023-04-20T07:03:55.845Z,8.95
2023-04-20T07:04:29.503Z,9.45
2023-04-20T07:05:03.089Z,9.25
2023-04-20T07:05:37.386Z,9.32
2023-04-20T07:06:11.895Z,8.90
2023-04-20T07:06:44.973Z,9.60
2023-04-20T07:07:18.047Z,9.30
2023-04-20T07:07:51.837Z,8.98
2023-04-20T07:08:25.427Z,8.80
2023-04-20T07:08:58.709Z,9.48
2023-04-20T07:09:32.206Z,9.18
2023-04-20T07:10:06.195Z,9.55
2023-04-20T07:10:39.479Z,8.98
2023-04-20T07:11:12.644Z,9.60
2023-04-20T07:11:46.130Z,9.23
2023-04-20T07:12:19.211Z,9.30
2023-04-20T07:12:52.385Z,9.10
2023-04-20T07:13:25.462Z,9.02
2023-04-20T07:13:58.855Z,9.57
2023-04-20T07:14:31.824Z,9.93
2023-04-20T07:15:05.921Z,9.45
2023-04-20T07:15:39.296Z,9.32
2023-04-20T07:16:12.708Z,9.27
2023-04-20T07:16:46.006Z,9.70
2023-04-20T07:17:19.545Z,9.20
2023-04-20T07:17:52.850Z,9.33
2023-04-20T07:18:26.010Z,9.02
2023-04-20T07:18:59.081Z,9.10
2023-04-20T07:19:33.280Z,9.45
2023-04-20T07:20:09.118Z,9.27
2023-04-20T07:20:42.299Z,9.32
2023-04-20T07:21:18.345Z,8.90
2023-04-20T07:21:51.829Z,9.18
2023-04-20T07:22:24.805Z,9.90
2023-04-20T07:22:58.088Z,8.65
2023-04-20T07:23:31.160Z,9.13
2023-04-20T07:24:04.543Z,9.27
2023-04-20T07:24:37.510Z,8.90
2023-04-20T07:25:11.207Z,9.18
2023-04-20T07:25:46.120Z,9.80
2023-04-20T07:26:19.510Z,8.38
2023-04-20T07:26:52.783Z,9.07
2023-04-20T07:27:28.520Z,8.93
2023-04-20T07:28:01.821Z,9.15
2023-04-20T07:28:34.876Z,9.45
2023-04-20T07:29:08.360Z,9.33
2023-04-20T07:29:41.445Z,9.50
2023-04-20T07:30:14.824Z,9.32
2023-04-20T07:30:48.002Z,9.60
2023-04-20T07:31:21.190Z,9.57
2023-04-20T07:31:54.301Z,8.65
2023-04-20T07:32:27.475Z,8.90
2023-04-20T07:33:00.960Z,9.23